createdAt,value
2024-04-16T00:01:31.670Z,89.25
2024-04-16T00:06:36.132Z,89.76
2024-04-16T00:11:34.190Z,90.75
2024-04-16T00:16:30.425Z,91.04
2024-04-16T00:21:34.184Z,91.77
2024-04-16T00:26:34.235Z,91.20
2024-04-16T00:31:46.170Z,91.79
2024-04-16T00:37:01.836Z,92.35
2024-04-16T00:44:36.759Z,92.90
2024-04-16T01:01:32.636Z,87.84
2024-04-16T01:04:58.047Z,87.84
2024-04-16T01:10:00.284Z,90.13
2024-04-16T01:15:04.110Z,92.42
2024-04-16T01:20:00.475Z,97.72
2024-04-16T01:25:00.343Z,98.13
2024-04-16T01:29:58.240Z,98.07
2024-04-16T01:34:59.989Z,99.22
2024-04-16T01:40:02.264Z,100.00
2024-04-16T01:45:00.140Z,100.00
2024-04-16T01:49:59.948Z,100.00
2024-04-16T01:55:00.080Z,100.00
2024-04-16T02:00:02.055Z,100.00
2024-04-16T02:04:57.939Z,99.74
2024-04-16T02:10:02.213Z,100.00
2024-04-16T02:14:57.938Z,100.00
2024-04-16T02:20:00.157Z,100.00
2024-04-16T02:25:00.289Z,100.00
2024-04-16T02:30:01.973Z,100.00
2024-04-16T02:34:57.889Z,100.00
2024-04-16T02:40:02.210Z,100.00
2024-04-16T02:45:00.156Z,100.00
2024-04-16T02:50:00.001Z,100.00
2024-04-16T02:55:02.041Z,100.00
2024-04-16T02:59:59.972Z,100.00
2024-04-16T03:05:00.027Z,100.00
2024-04-16T03:09:57.893Z,100.00
2024-04-16T03:15:02.252Z,100.00
2024-04-16T03:20:02.182Z,100.00
2024-04-16T03:25:00.092Z,100.00
2024-04-16T03:30:04.062Z,100.00
2024-04-16T03:34:58.180Z,100.00
2024-04-16T03:40:00.999Z,100.00
2024-04-16T03:45:04.034Z,100.00
2024-04-16T03:49:57.840Z,100.00
2024-04-16T03:55:00.768Z,100.00
2024-04-16T04:04:57.909Z,100.00
2024-04-16T04:09:59.957Z,100.00
2024-04-16T04:15:03.971Z,100.00
2024-04-16T04:19:57.848Z,100.00
2024-04-16T04:24:59.950Z,100.00
2024-04-16T04:30:05.550Z,100.00
2024-04-16T04:34:57.909Z,100.00
2024-04-16T04:39:59.986Z,100.00
2024-04-16T04:45:04.096Z,100.00
2024-04-16T04:49:59.460Z,100.00
2024-04-16T04:55:01.434Z,100.00
2024-04-16T05:00:05.791Z,100.00
2024-04-16T05:04:57.804Z,100.00
2024-04-16T05:09:59.792Z,100.00
2024-04-16T05:14:58.133Z,100.00
2024-04-16T05:19:59.910Z,100.00
2024-04-16T05:24:57.796Z,99.97
2024-04-16T05:29:58.076Z,94.09
2024-04-16T05:34:58.015Z,91.07
2024-04-16T05:40:00.454Z,87.73
2024-04-16T05:44:58.028Z,86.69
2024-04-16T05:50:01.805Z,87.73
2024-04-16T05:54:58.019Z,87.31
2024-04-16T06:00:04.911Z,86.92
2024-04-16T06:04:58.055Z,84.46
2024-04-16T06:09:57.718Z,80.59
2024-04-16T06:15:04.060Z,76.68
2024-04-16T06:20:01.792Z,74.16
2024-04-16T06:24:59.796Z,72.24
2024-04-16T06:29:58.517Z,68.49
2024-04-16T06:35:01.854Z,68.81
2024-04-16T06:39:57.763Z,69.55
2024-04-16T06:45:03.992Z,71.58
2024-04-16T06:49:57.706Z,72.26
2024-04-16T06:55:00.462Z,72.91
2024-04-16T07:00:04.132Z,74.14
2024-04-16T07:04:59.747Z,75.20
2024-04-16T07:10:01.761Z,73.73
2024-04-16T07:15:03.934Z,73.77
2024-04-16T07:19:57.665Z,70.63
2024-04-16T07:25:01.796Z,68.09
2024-04-16T07:30:03.882Z,67.45
2024-04-16T07:34:59.755Z,66.91
2024-04-16T07:39:58.331Z,64.75
2024-04-16T07:45:03.867Z,64.82
2024-04-16T07:49:57.740Z,64.54
2024-04-16T07:55:01.707Z,63.13
2024-04-16T08:00:03.808Z,63.25
2024-04-16T08:04:57.804Z,63.38
2024-04-16T08:10:01.345Z,61.85
2024-04-16T08:14:59.456Z,60.89
2024-04-16T08:19:59.795Z,59.43
2024-04-16T08:25:03.812Z,59.98
2024-04-16T08:30:01.903Z,57.63
2024-04-16T08:34:57.817Z,56.43
2024-04-16T08:40:04.039Z,57.22
2024-04-16T08:45:01.489Z,55.04
2024-04-16T08:49:59.914Z,55.76
2024-04-16T08:54:58.831Z,56.02
2024-04-16T09:00:01.801Z,56.03
2024-04-16T09:05:01.356Z,56.81
2024-04-16T09:10:04.691Z,56.29
2024-04-16T09:15:00.553Z,56.03
2024-04-16T09:20:02.210Z,55.47
2024-04-16T09:25:08.142Z,55.23
2024-04-16T09:30:07.543Z,56.78
2024-04-16T09:34:57.621Z,54.77
2024-04-16T09:40:04.830Z,55.81
2024-04-16T09:45:00.517Z,55.24
2024-04-16T09:50:11.239Z,53.98
2024-04-16T09:55:06.962Z,55.00
2024-04-16T10:00:00.878Z,55.11
2024-04-16T10:05:04.207Z,54.83
2024-04-16T10:09:58.103Z,54.70
2024-04-16T10:15:02.706Z,53.62
2024-04-16T10:20:01.739Z,53.16
2024-04-16T10:25:04.153Z,52.61
2024-04-16T10:30:11.182Z,51.20
2024-04-16T10:34:59.247Z,50.38
2024-04-16T10:40:03.841Z,50.07
2024-04-16T10:45:04.277Z,48.02
2024-04-16T10:50:00.978Z,47.37
2024-04-16T10:55:02.903Z,47.81
2024-04-16T11:00:10.232Z,48.69
2024-04-16T11:04:59.588Z,49.12
2024-04-16T11:09:57.589Z,49.02
2024-04-16T11:15:03.826Z,48.57
2024-04-16T11:20:00.297Z,48.44
2024-04-16T11:25:01.705Z,48.02
2024-04-16T11:30:06.508Z,47.55
2024-04-16T11:34:57.718Z,48.15
2024-04-16T11:40:01.614Z,47.77
2024-04-16T11:45:03.673Z,48.04
2024-04-16T11:49:58.078Z,48.69
2024-04-16T11:55:01.544Z,49.64
2024-04-16T12:00:02.159Z,49.25
2024-04-16T12:04:59.669Z,47.94
2024-04-16T12:09:59.503Z,47.62
2024-04-16T12:15:03.696Z,48.31
2024-04-16T12:19:57.475Z,48.45
2024-04-16T12:24:57.572Z,47.84
2024-04-16T12:30:04.314Z,48.86
2024-04-16T12:34:57.540Z,49.55
2024-04-16T12:39:59.473Z,48.77
2024-04-16T12:45:03.759Z,47.20
2024-04-16T12:49:57.460Z,45.73
2024-04-16T12:54:59.454Z,46.00
2024-04-16T13:00:03.677Z,46.40
2024-04-16T13:04:57.452Z,45.52
2024-04-16T13:09:59.666Z,45.08
2024-04-16T13:15:04.039Z,45.29
2024-04-16T13:19:58.357Z,46.01
2024-04-16T13:24:57.514Z,46.66
2024-04-16T13:30:03.905Z,46.35
2024-04-16T13:34:59.941Z,46.30
2024-04-16T13:39:57.807Z,45.70
2024-04-16T13:44:57.485Z,46.80
2024-04-16T13:49:59.529Z,46.79
2024-04-16T13:54:57.461Z,46.65
2024-04-16T13:59:58.012Z,46.27
2024-04-16T14:05:15.822Z,46.33
2024-04-16T14:09:57.466Z,46.26
2024-04-16T14:15:04.064Z,46.59
2024-04-16T14:19:59.681Z,46.96
2024-04-16T14:24:57.443Z,47.26
2024-04-16T14:30:05.371Z,47.43
2024-04-16T14:34:57.430Z,47.13
2024-04-16T14:39:59.404Z,46.98
2024-04-16T14:45:03.604Z,47.35
2024-04-16T14:49:57.478Z,47.58
2024-04-16T14:54:59.692Z,47.82
2024-04-16T14:59:57.680Z,47.55
2024-04-16T15:04:59.448Z,47.19
2024-04-16T15:09:59.477Z,46.95
2024-04-16T15:15:03.574Z,47.03
2024-04-16T15:19:57.349Z,46.88
2024-04-16T15:24:59.512Z,47.34
2024-04-16T15:30:03.686Z,47.25
2024-04-16T15:34:59.491Z,48.20
2024-04-16T15:40:00.197Z,48.82
2024-04-16T15:45:03.642Z,48.79
2024-04-16T15:49:57.770Z,49.55
2024-04-16T15:54:59.449Z,50.18
2024-04-16T16:00:03.622Z,49.40
2024-04-16T16:04:59.554Z,49.87
2024-04-16T16:10:01.737Z,49.83
2024-04-16T16:15:03.602Z,49.99
2024-04-16T16:20:01.512Z,50.22
2024-04-16T16:24:57.297Z,50.47
2024-04-16T16:30:03.520Z,50.56
2024-04-16T16:35:01.309Z,50.72
2024-04-16T16:40:01.866Z,51.09
2024-04-16T16:45:03.124Z,51.22
2024-04-16T16:49:59.370Z,51.44
2024-04-16T16:55:01.513Z,50.99
2024-04-16T16:59:57.501Z,50.15
2024-04-16T17:04:59.429Z,50.10
2024-04-16T17:10:01.885Z,50.48
2024-04-16T17:15:01.429Z,51.29
2024-04-16T17:19:57.345Z,52.55
2024-04-16T17:25:03.408Z,53.55
2024-04-16T17:30:01.410Z,54.64
2024-04-16T17:34:59.532Z,55.32
2024-04-16T17:40:03.594Z,55.99
2024-04-16T17:44:57.445Z,56.16
2024-04-16T17:49:57.363Z,62.98
2024-04-16T17:55:03.602Z,66.27
2024-04-16T17:59:58.106Z,67.63
2024-04-16T18:04:59.352Z,71.22
2024-04-16T18:10:03.536Z,75.25
2024-04-16T18:14:59.350Z,78.21
2024-04-16T18:19:58.730Z,80.44
2024-04-16T18:25:03.636Z,80.77
2024-04-16T18:30:01.692Z,81.03
2024-04-16T18:34:59.287Z,82.00
2024-04-16T18:40:01.383Z,83.19
2024-04-16T18:45:01.568Z,84.09
2024-04-16T18:49:59.374Z,84.43
2024-04-16T18:55:03.844Z,84.29
2024-04-16T19:00:00.045Z,83.66
2024-04-16T19:04:59.280Z,83.91
2024-04-16T19:10:01.392Z,82.37
2024-04-16T19:14:59.657Z,82.77
2024-04-16T19:19:58.427Z,83.31
2024-04-16T19:25:01.311Z,82.88
2024-04-16T19:29:59.323Z,82.02
2024-04-16T19:34:59.308Z,82.75
2024-04-16T19:40:02.608Z,82.80
2024-04-16T19:44:59.341Z,82.46
2024-04-16T19:49:59.471Z,84.42
2024-04-16T19:54:59.343Z,85.23
2024-04-16T20:00:03.149Z,84.92
2024-04-16T20:04:57.287Z,84.50
2024-04-16T20:10:01.335Z,84.72
2024-04-16T20:15:01.691Z,84.90
2024-04-16T20:19:59.513Z,84.84
2024-04-16T20:24:59.201Z,84.46
2024-04-16T20:30:01.286Z,84.62
2024-04-16T20:35:01.237Z,85.26
2024-04-16T20:40:01.205Z,85.05
2024-04-16T20:44:59.206Z,84.41
2024-04-16T20:50:01.169Z,84.08
2024-04-16T20:54:59.351Z,84.03
2024-04-16T21:00:01.300Z,84.12
2024-04-16T21:05:01.205Z,84.13
2024-04-16T21:10:01.540Z,84.16
2024-04-16T21:14:57.152Z,84.30
2024-04-16T21:20:03.550Z,84.24
2024-04-16T21:24:59.210Z,84.43
2024-04-16T21:30:01.223Z,85.94
2024-04-16T21:35:01.350Z,87.48
2024-04-16T21:40:01.218Z,89.77
2024-04-16T21:45:01.178Z,91.25
2024-04-16T21:50:03.680Z,91.39
2024-04-16T21:54:59.112Z,92.71
2024-04-16T21:59:59.582Z,93.60
2024-04-16T22:05:03.372Z,94.63
2024-04-16T22:09:57.042Z,92.40
2024-04-16T22:15:01.157Z,91.39
2024-04-16T22:20:01.219Z,91.63
2024-04-16T22:24:59.064Z,92.14
2024-04-16T22:30:01.516Z,92.29
2024-04-16T22:34:59.422Z,93.17
2024-04-16T22:39:59.082Z,92.75
2024-04-16T22:45:03.240Z,94.28
2024-04-16T22:49:58.628Z,95.47
2024-04-16T22:54:59.210Z,94.85
2024-04-16T23:00:03.189Z,95.51
2024-04-16T23:04:59.117Z,95.89
2024-04-16T23:09:59.081Z,96.21
2024-04-16T23:15:03.076Z,96.06
2024-04-16T23:19:59.096Z,96.79
2024-04-16T23:24:59.035Z,97.20
2024-04-16T23:29:57.240Z,97.59
2024-04-16T23:34:59.586Z,97.77
2024-04-16T23:39:56.985Z,98.47
2024-04-16T23:45:03.178Z,98.02
2024-04-16T23:49:59.307Z,98.24
2024-04-16T23:54:58.978Z,98.28
